createdAt,value
2022-08-22T00:00:20.748Z,99822.00
2022-08-22T00:02:42.145Z,99822.09
2022-08-22T00:02:47.465Z,99805.19
2022-08-22T00:02:55.614Z,99838.50
2022-08-22T00:02:58.480Z,99812.22
2022-08-22T00:03:18.581Z,99811.50
2022-08-22T00:05:58.849Z,99820.06
2022-08-22T00:08:33.739Z,99811.72
2022-08-22T00:11:09.669Z,99809.63
2022-08-22T00:13:47.019Z,99802.63
2022-08-22T00:16:30.466Z,99801.69
2022-08-22T00:19:09.357Z,99802.78
2022-08-22T00:21:46.699Z,99801.03
2022-08-22T00:24:27.740Z,99801.88
2022-08-22T00:27:00.309Z,99801.06
2022-08-22T00:29:34.629Z,99802.19
2022-08-22T00:32:11.828Z,99801.47
2022-08-22T00:34:47.557Z,99800.00
2022-08-22T00:37:22.018Z,99811.69
2022-08-22T00:39:59.793Z,99813.69
2022-08-22T00:43:00.616Z,99818.22
2022-08-22T00:46:00.478Z,99812.13
2022-08-22T00:48:44.919Z,99811.44
2022-08-22T00:51:32.717Z,99811.53
2022-08-22T00:54:11.441Z,99802.75
2022-08-22T00:57:00.447Z,99805.41
2022-08-22T01:00:05.318Z,99809.03
2022-08-22T01:02:48.079Z,99806.56
2022-08-22T01:05:36.089Z,99815.47
2022-08-22T01:08:19.108Z,99809.50
2022-08-22T01:11:06.398Z,99818.41
2022-08-22T01:13:48.027Z,99822.06
2022-08-22T01:16:45.779Z,99816.78
2022-08-22T01:19:51.102Z,99813.53
2022-08-22T01:22:47.889Z,99815.22
2022-08-22T01:25:59.929Z,99803.13
2022-08-22T01:28:47.609Z,99789.47
2022-08-22T01:31:52.648Z,99784.47
2022-08-22T01:34:43.269Z,99787.72
2022-08-22T01:37:46.860Z,99782.22
2022-08-22T01:40:54.006Z,99783.63
2022-08-22T01:43:43.866Z,99774.38
2022-08-22T01:46:48.549Z,99774.25
2022-08-22T01:49:21.659Z,99775.00
2022-08-22T01:51:56.528Z,99780.28
2022-08-22T01:54:41.999Z,99781.41
2022-08-22T01:57:11.648Z,99773.78
2022-08-22T01:59:43.149Z,99768.34
2022-08-22T02:02:32.139Z,99754.19
2022-08-22T02:05:07.898Z,99760.63
2022-08-22T02:07:50.028Z,99768.63
2022-08-22T02:10:26.258Z,99766.53
2022-08-22T02:13:04.109Z,99768.94
2022-08-22T02:15:46.129Z,99763.66
2022-08-22T02:18:25.709Z,99763.97
2022-08-22T02:21:00.408Z,99760.69
2022-08-22T02:23:44.379Z,99766.13
2022-08-22T02:26:18.279Z,99763.63
2022-08-22T02:29:08.745Z,99762.88
2022-08-22T02:31:43.849Z,99754.19
2022-08-22T02:34:28.599Z,99751.56
2022-08-22T02:37:06.888Z,99750.59
2022-08-22T02:39:43.377Z,99746.94
2022-08-22T02:42:22.445Z,99745.94
2022-08-22T02:44:59.717Z,99745.78
2022-08-22T02:47:35.838Z,99742.31
2022-08-22T02:50:17.948Z,99743.47
2022-08-22T02:52:57.331Z,99734.41
2022-08-22T02:55:39.959Z,99742.06
2022-08-22T02:58:21.111Z,99746.13
2022-08-22T03:00:53.266Z,99743.56
2022-08-22T03:03:24.477Z,99744.28
2022-08-22T03:06:01.952Z,99742.59
2022-08-22T03:08:32.691Z,99741.94
2022-08-22T03:11:15.190Z,99741.94
2022-08-22T03:13:56.879Z,99748.19
2022-08-22T03:16:34.409Z,99759.47
2022-08-22T03:19:07.458Z,99768.97
2022-08-22T03:21:48.948Z,99769.44
2022-08-22T03:24:25.348Z,99750.63
2022-08-22T03:27:05.797Z,99750.34
2022-08-22T03:29:38.438Z,99750.88
2022-08-22T03:32:12.841Z,99755.63
2022-08-22T03:34:57.528Z,99743.38
2022-08-22T03:37:33.808Z,99748.72
2022-08-22T03:40:07.656Z,99748.78
2022-08-22T03:43:00.147Z,99752.34
2022-08-22T03:45:50.674Z,99757.47
2022-08-22T03:48:46.049Z,99748.34
2022-08-22T03:51:28.968Z,99763.41
2022-08-22T03:54:16.456Z,99761.03
2022-08-22T03:57:13.388Z,99777.97
2022-08-22T04:00:19.448Z,99784.25
2022-08-22T04:03:17.768Z,99789.91
2022-08-22T04:06:12.922Z,99785.72
2022-08-22T04:09:16.928Z,99790.84
2022-08-22T04:12:08.888Z,99782.81
2022-08-22T04:15:01.019Z,99776.81
2022-08-22T04:18:12.509Z,99768.41
2022-08-22T04:21:10.776Z,99757.31
2022-08-22T04:23:57.080Z,99745.84
2022-08-22T04:26:40.898Z,99732.81
2022-08-22T04:29:20.642Z,99736.22
2022-08-22T04:31:56.276Z,99738.84
2022-08-22T04:34:35.459Z,99740.38
2022-08-22T04:37:11.138Z,99747.19
2022-08-22T04:39:47.386Z,99745.28
2022-08-22T04:42:35.116Z,99745.13
2022-08-22T04:45:09.538Z,99740.88
2022-08-22T04:47:40.658Z,99745.56
2022-08-22T04:50:17.208Z,99759.75
2022-08-22T04:53:09.128Z,99758.22
2022-08-22T04:55:47.378Z,99753.88
2022-08-22T04:58:31.748Z,99746.59
2022-08-22T05:01:10.078Z,99741.91
2022-08-22T05:03:44.971Z,99743.34
2022-08-22T05:06:19.759Z,99741.16
2022-08-22T05:08:53.885Z,99737.25
2022-08-22T05:11:25.218Z,99734.03
2022-08-22T05:13:57.759Z,99722.44
2022-08-22T05:16:31.799Z,99724.28
2022-08-22T05:19:03.979Z,99715.44
2022-08-22T05:21:41.726Z,99717.22
2022-08-22T05:24:12.788Z,99710.72
2022-08-22T05:26:46.533Z,99707.94
2022-08-22T05:29:20.619Z,99709.56
2022-08-22T05:31:51.588Z,99707.78
2022-08-22T05:34:24.108Z,99714.72
2022-08-22T05:36:57.388Z,99715.34
2022-08-22T05:39:28.348Z,99701.16
2022-08-22T05:42:04.680Z,99702.94
2022-08-22T05:44:35.898Z,99712.47
2022-08-22T05:47:13.449Z,99710.41
2022-08-22T05:49:50.358Z,99720.91
2022-08-22T05:52:37.528Z,99716.06
2022-08-22T05:55:16.908Z,99715.06
2022-08-22T05:57:51.539Z,99716.59
2022-08-22T06:00:23.269Z,99713.06
2022-08-22T06:03:01.856Z,99696.13
2022-08-22T06:05:34.320Z,99698.44
2022-08-22T06:08:09.518Z,99713.81
2022-08-22T06:10:44.849Z,99708.31
2022-08-22T06:13:24.522Z,99733.75
2022-08-22T06:16:02.088Z,99721.19
2022-08-22T06:18:32.626Z,99727.19
2022-08-22T06:21:03.418Z,99730.59
2022-08-22T06:23:41.218Z,99723.44
2022-08-22T06:26:21.220Z,99721.72
2022-08-22T06:28:54.487Z,99728.41
2022-08-22T06:31:28.208Z,99720.94
2022-08-22T06:34:01.506Z,99719.25
2022-08-22T06:36:31.987Z,99722.19
2022-08-22T06:39:11.412Z,99726.19
2022-08-22T06:41:46.747Z,99722.44
2022-08-22T06:44:17.748Z,99708.97
2022-08-22T06:46:49.207Z,99699.94
2022-08-22T06:49:18.849Z,99707.50
2022-08-22T06:51:48.858Z,99712.84
2022-08-22T06:54:22.183Z,99709.56
2022-08-22T06:56:52.019Z,99724.25
2022-08-22T06:59:27.468Z,99724.81
2022-08-22T07:02:02.717Z,99720.09
2022-08-22T07:04:31.862Z,99721.34
2022-08-22T07:07:04.549Z,99725.25
2022-08-22T07:09:37.303Z,99722.91
2022-08-22T07:12:14.594Z,99725.66
2022-08-22T07:14:45.009Z,99725.66
2022-08-22T07:17:19.626Z,99729.59
2022-08-22T07:19:56.018Z,99724.94
2022-08-22T07:22:27.688Z,99710.75
2022-08-22T07:25:02.498Z,99711.59
2022-08-22T07:27:48.869Z,99708.88
2022-08-22T07:30:27.485Z,99720.22
2022-08-22T07:33:23.661Z,99722.03
2022-08-22T07:35:57.507Z,99735.19
2022-08-22T07:38:42.794Z,99732.63
2022-08-22T07:41:18.639Z,99723.91
2022-08-22T07:43:51.528Z,99719.38
2022-08-22T07:46:30.231Z,99721.44
2022-08-22T07:49:10.341Z,99720.00
2022-08-22T07:51:46.290Z,99730.78
2022-08-22T07:54:18.088Z,99712.50
2022-08-22T07:56:56.498Z,99700.44
2022-08-22T07:59:27.219Z,99697.50
2022-08-22T08:01:58.409Z,99693.03
2022-08-22T08:04:30.688Z,99681.03
2022-08-22T08:07:04.268Z,99687.75
2022-08-22T08:09:33.928Z,99692.69
2022-08-22T08:12:07.048Z,99700.31
2022-08-22T08:14:40.013Z,99705.59
2022-08-22T08:17:14.601Z,99699.63
2022-08-22T08:19:44.488Z,99697.91
2022-08-22T08:22:18.169Z,99697.00
2022-08-22T08:24:49.318Z,99691.41
2022-08-22T08:27:41.170Z,99681.69
2022-08-22T08:30:15.797Z,99680.03
2022-08-22T08:32:49.102Z,99682.28
2022-08-22T08:35:25.475Z,99673.09
2022-08-22T08:37:59.239Z,99662.63
2022-08-22T08:40:58.548Z,99665.28
2022-08-22T08:43:38.291Z,99662.47
2022-08-22T08:46:32.172Z,99660.34
2022-08-22T08:49:20.987Z,99652.91
2022-08-22T08:52:13.218Z,99654.81
2022-08-22T08:54:56.098Z,99654.47
2022-08-22T08:57:38.686Z,99667.75
2022-08-22T09:00:14.713Z,99671.09
2022-08-22T09:02:56.418Z,99675.09
2022-08-22T09:05:47.499Z,99671.16
2022-08-22T09:08:37.310Z,99685.34
2022-08-22T09:11:44.419Z,99681.25
2022-08-22T09:14:27.347Z,99684.69
2022-08-22T09:17:16.988Z,99680.13
2022-08-22T09:20:20.268Z,99682.78
2022-08-22T09:23:17.039Z,99676.88
2022-08-22T09:25:52.111Z,99676.22
2022-08-22T09:28:28.196Z,99684.47
2022-08-22T09:31:16.910Z,99673.13
2022-08-22T09:34:09.967Z,99686.81
2022-08-22T09:36:55.514Z,99676.28
2022-08-22T09:39:33.929Z,99679.72
2022-08-22T09:42:12.019Z,99687.75
2022-08-22T09:44:51.958Z,99693.38
2022-08-22T09:47:32.813Z,99692.16
2022-08-22T09:50:13.670Z,99677.47
2022-08-22T09:52:56.800Z,99668.25
2022-08-22T09:55:40.795Z,99663.16
2022-08-22T09:58:19.297Z,99667.63
2022-08-22T10:00:56.945Z,99654.41
2022-08-22T10:03:52.472Z,99652.13
2022-08-22T10:06:30.190Z,99652.59
2022-08-22T10:09:04.710Z,99651.41
2022-08-22T10:11:43.220Z,99648.13
2022-08-22T10:14:22.339Z,99650.44
2022-08-22T10:17:07.184Z,99650.44
2022-08-22T10:19:41.479Z,99636.59
2022-08-22T10:22:30.013Z,99645.09
2022-08-22T10:25:09.646Z,99635.75
2022-08-22T10:27:53.326Z,99647.16
2022-08-22T10:30:26.765Z,99645.06
2022-08-22T10:33:03.860Z,99644.50
2022-08-22T10:35:40.809Z,99644.72
2022-08-22T10:38:16.277Z,99640.94
2022-08-22T10:40:55.731Z,99636.31
2022-08-22T10:43:31.940Z,99635.28
2022-08-22T10:46:12.361Z,99629.50
2022-08-22T10:48:49.208Z,99620.22
2022-08-22T10:51:31.028Z,99626.91
2022-08-22T10:54:19.959Z,99634.03
2022-08-22T10:56:55.508Z,99643.69
2022-08-22T10:59:39.325Z,99635.06
2022-08-22T11:02:30.469Z,99624.56
2022-08-22T11:05:20.056Z,99633.25
2022-08-22T11:08:01.549Z,99619.97
2022-08-22T11:10:47.818Z,99618.69
2022-08-22T11:13:26.419Z,99616.72
2022-08-22T11:16:01.437Z,99614.66
2022-08-22T11:19:02.834Z,99607.81
2022-08-22T11:21:51.013Z,99602.25
2022-08-22T11:24:55.899Z,99599.16
2022-08-22T11:27:38.362Z,99594.66
2022-08-22T11:30:18.201Z,99584.50
2022-08-22T11:33:14.648Z,99583.22
2022-08-22T11:35:49.556Z,99575.72
2022-08-22T11:38:32.715Z,99589.63
2022-08-22T11:41:09.480Z,99585.31
2022-08-22T11:43:50.609Z,99593.38
2022-08-22T11:46:25.518Z,99584.13
2022-08-22T11:49:14.948Z,99587.38
2022-08-22T11:52:00.317Z,99589.75
2022-08-22T11:54:38.409Z,99593.09
2022-08-22T11:57:13.139Z,99572.53
2022-08-22T12:00:03.048Z,99583.75
2022-08-22T12:02:45.379Z,99582.81
2022-08-22T12:05:24.623Z,99590.44
2022-08-22T12:08:00.726Z,99575.91
2022-08-22T12:10:35.418Z,99572.59
2022-08-22T12:13:09.658Z,99580.50
2022-08-22T12:15:48.903Z,99578.38
2022-08-22T12:18:41.317Z,99574.59
2022-08-22T12:21:33.039Z,99570.50
2022-08-22T12:24:32.249Z,99573.75
2022-08-22T12:27:18.443Z,99575.81
2022-08-22T12:30:14.015Z,99578.44
2022-08-22T12:33:23.062Z,99575.22
2022-08-22T12:36:06.389Z,99576.78
2022-08-22T12:38:54.148Z,99581.19
2022-08-22T12:42:00.299Z,99576.75
2022-08-22T12:44:47.197Z,99590.94
2022-08-22T12:47:32.666Z,99583.69
2022-08-22T12:50:20.268Z,99580.75
2022-08-22T12:53:09.499Z,99574.94
2022-08-22T12:55:55.537Z,99578.59
2022-08-22T12:58:55.849Z,99576.19
2022-08-22T13:01:34.115Z,99573.38
2022-08-22T13:04:12.497Z,99569.47
2022-08-22T13:07:09.678Z,99569.19
2022-08-22T13:09:46.971Z,99574.44
2022-08-22T13:12:24.632Z,99568.63
2022-08-22T13:14:56.533Z,99571.09
2022-08-22T13:17:26.088Z,99566.16
2022-08-22T13:20:00.908Z,99569.47
2022-08-22T13:22:31.989Z,99565.28
2022-08-22T13:25:06.149Z,99557.47
2022-08-22T13:27:50.804Z,99558.41
2022-08-22T13:30:22.858Z,99558.31
2022-08-22T13:32:53.749Z,99558.97
2022-08-22T13:35:27.452Z,99557.19
2022-08-22T13:38:07.170Z,99551.69
2022-08-22T13:40:48.292Z,99555.84
2022-08-22T13:43:22.178Z,99552.09
2022-08-22T13:45:55.831Z,99555.88
2022-08-22T13:48:30.519Z,99553.31
2022-08-22T13:51:08.160Z,99550.94
2022-08-22T13:53:49.922Z,99556.38
2022-08-22T13:56:43.017Z,99548.78
2022-08-22T13:59:49.741Z,99549.00
2022-08-22T14:02:30.975Z,99545.56
2022-08-22T14:05:06.885Z,99547.38
2022-08-22T14:07:39.153Z,99540.63
2022-08-22T14:10:14.999Z,99532.59
2022-08-22T14:13:07.173Z,99528.06
2022-08-22T14:15:45.694Z,99523.88
2022-08-22T14:18:21.349Z,99528.97
2022-08-22T14:21:19.959Z,99524.88
2022-08-22T14:23:52.831Z,99528.94
2022-08-22T14:26:32.933Z,99524.50
2022-08-22T14:29:12.969Z,99526.25
2022-08-22T14:31:41.937Z,99529.84
2022-08-22T14:34:14.699Z,99529.47
2022-08-22T14:36:49.417Z,99519.28
2022-08-22T14:39:27.770Z,99518.44
2022-08-22T14:42:04.204Z,99513.16
2022-08-22T14:44:41.577Z,99512.88
2022-08-22T14:47:48.223Z,99507.13
2022-08-22T14:50:32.169Z,99504.88
2022-08-22T14:53:07.368Z,99498.94
2022-08-22T14:55:38.191Z,99500.28
2022-08-22T14:58:15.139Z,99488.06
2022-08-22T15:00:49.971Z,99482.81
2022-08-22T15:03:27.059Z,99490.81
2022-08-22T15:06:00.490Z,99488.16
2022-08-22T15:08:32.307Z,99482.53
2022-08-22T15:11:22.393Z,99486.84
2022-08-22T15:13:56.386Z,99480.66
2022-08-22T15:16:32.028Z,99476.88
2022-08-22T15:19:00.705Z,99476.31
2022-08-22T15:21:32.791Z,99477.56
2022-08-22T15:24:08.019Z,99473.34
2022-08-22T15:26:42.100Z,99471.91
2022-08-22T15:29:20.342Z,99469.38
2022-08-22T15:31:52.249Z,99469.97
2022-08-22T15:34:37.949Z,99465.88
2022-08-22T15:37:32.383Z,99462.88
2022-08-22T15:40:08.370Z,99460.34
2022-08-22T15:42:43.577Z,99466.81
2022-08-22T15:45:22.377Z,99456.69
2022-08-22T15:47:54.707Z,99457.00
2022-08-22T15:50:33.814Z,99468.25
2022-08-22T15:53:21.697Z,99464.47
2022-08-22T15:56:22.117Z,99465.69
2022-08-22T15:58:53.767Z,99458.88
2022-08-22T16:01:25.161Z,99462.91
2022-08-22T16:03:59.558Z,99460.50
2022-08-22T16:06:56.618Z,99466.28
2022-08-22T16:09:37.258Z,99463.25
2022-08-22T16:12:09.601Z,99456.66
2022-08-22T16:14:57.028Z,99459.94
2022-08-22T16:17:45.857Z,99452.88
2022-08-22T16:20:59.148Z,99460.59
2022-08-22T16:23:28.698Z,99460.94
2022-08-22T16:26:16.578Z,99463.13
2022-08-22T16:28:58.878Z,99467.28
2022-08-22T16:31:32.456Z,99463.19
2022-08-22T16:34:20.348Z,99455.16
2022-08-22T16:36:50.747Z,99459.25
2022-08-22T16:39:41.247Z,99453.16
2022-08-22T16:42:35.070Z,99461.25
2022-08-22T16:45:31.684Z,99446.25
2022-08-22T16:48:14.988Z,99454.44
2022-08-22T16:50:43.767Z,99456.91
2022-08-22T16:53:34.177Z,99451.09
2022-08-22T16:56:27.978Z,99450.50
2022-08-22T16:59:23.508Z,99454.13
2022-08-22T17:02:26.157Z,99452.19
2022-08-22T17:05:10.768Z,99452.78
2022-08-22T17:07:54.884Z,99452.41
2022-08-22T17:10:35.400Z,99444.13
2022-08-22T17:13:14.917Z,99450.91
2022-08-22T17:16:01.217Z,99461.59
2022-08-22T17:18:44.597Z,99455.66
2022-08-22T17:21:18.578Z,99453.38
2022-08-22T17:23:56.384Z,99451.66
2022-08-22T17:26:37.508Z,99451.16
2022-08-22T17:29:18.427Z,99458.38
2022-08-22T17:31:51.375Z,99454.28
2022-08-22T17:34:32.309Z,99448.97
2022-08-22T17:37:09.658Z,99456.88
2022-08-22T17:39:55.634Z,99453.34
2022-08-22T17:42:39.377Z,99455.16
2022-08-22T17:45:18.979Z,99455.31
2022-08-22T17:47:54.579Z,99451.53
2022-08-22T17:50:30.816Z,99446.78
2022-08-22T17:53:06.705Z,99450.44
2022-08-22T17:55:54.315Z,99444.38
2022-08-22T17:58:37.557Z,99457.13
2022-08-22T18:01:17.101Z,99453.16
2022-08-22T18:03:54.297Z,99455.13
2022-08-22T18:06:28.787Z,99447.50
2022-08-22T18:09:16.287Z,99459.53
2022-08-22T18:11:51.017Z,99451.94
2022-08-22T18:14:31.018Z,99451.09
2022-08-22T18:17:01.889Z,99451.81
2022-08-22T18:19:40.934Z,99452.66
2022-08-22T18:22:13.195Z,99457.84
2022-08-22T18:24:50.193Z,99456.16
2022-08-22T18:27:35.062Z,99457.16
2022-08-22T18:30:16.338Z,99458.59
2022-08-22T18:32:56.273Z,99454.75
2022-08-22T18:35:32.452Z,99456.00
2022-08-22T18:38:20.178Z,99453.44
2022-08-22T18:40:54.941Z,99458.19
2022-08-22T18:43:36.380Z,99459.56
2022-08-22T18:46:21.188Z,99460.09
2022-08-22T18:49:14.222Z,99461.44
2022-08-22T18:51:41.606Z,99472.63
2022-08-22T18:54:36.567Z,99479.31
2022-08-22T18:57:24.139Z,99477.13
2022-08-22T19:00:06.188Z,99483.09
2022-08-22T19:03:04.813Z,99479.94
2022-08-22T19:06:00.488Z,99486.88
2022-08-22T19:08:53.733Z,99491.81
2022-08-22T19:11:37.138Z,99489.16
2022-08-22T19:14:14.090Z,99491.44
2022-08-22T19:17:19.086Z,99485.00
2022-08-22T19:20:14.549Z,99489.38
2022-08-22T19:22:45.050Z,99487.56
2022-08-22T19:25:26.057Z,99487.81
2022-08-22T19:28:27.408Z,99489.03
2022-08-22T19:31:28.588Z,99493.28
2022-08-22T19:34:17.236Z,99477.56
2022-08-22T19:36:46.648Z,99477.13
2022-08-22T19:39:46.896Z,99497.44
2022-08-22T19:42:34.217Z,99497.69
2022-08-22T19:45:19.721Z,99505.19
2022-08-22T19:47:58.211Z,99499.72
2022-08-22T19:50:31.640Z,99503.25
2022-08-22T19:53:12.261Z,99498.16
2022-08-22T19:55:55.579Z,99497.69
2022-08-22T19:58:33.649Z,99494.78
2022-08-22T20:01:10.362Z,99494.28
2022-08-22T20:03:49.730Z,99500.34
2022-08-22T20:06:47.794Z,99491.59
2022-08-22T20:09:35.279Z,99500.28
2022-08-22T20:12:16.008Z,99498.84
2022-08-22T20:14:48.339Z,99504.38
2022-08-22T20:17:40.061Z,99499.31
2022-08-22T20:20:18.852Z,99503.16
2022-08-22T20:22:53.120Z,99499.41
2022-08-22T20:25:34.690Z,99498.75
2022-08-22T20:28:30.689Z,99498.38
2022-08-22T20:31:03.400Z,99490.88
2022-08-22T20:33:35.950Z,99503.31
2022-08-22T20:36:07.271Z,99505.47
2022-08-22T20:38:59.259Z,99498.91
2022-08-22T20:41:38.635Z,99499.38
2022-08-22T20:44:13.437Z,99494.03
2022-08-22T20:46:53.343Z,99506.59
2022-08-22T20:49:28.341Z,99512.38
2022-08-22T20:51:57.929Z,99504.63
2022-08-22T20:54:28.571Z,99512.84
2022-08-22T20:57:00.180Z,99509.44
2022-08-22T20:59:35.779Z,99498.34
2022-08-22T21:02:12.120Z,99512.59
2022-08-22T21:04:49.540Z,99510.66
2022-08-22T21:07:26.942Z,99512.84
2022-08-22T21:10:16.746Z,99518.38
2022-08-22T21:13:09.105Z,99517.75
2022-08-22T21:15:39.956Z,99520.50
2022-08-22T21:18:09.536Z,99522.44
2022-08-22T21:20:39.649Z,99514.78
2022-08-22T21:23:14.338Z,99522.28
2022-08-22T21:25:52.209Z,99511.66
2022-08-22T21:28:31.527Z,99513.78
2022-08-22T21:31:01.743Z,99516.56
2022-08-22T21:33:31.226Z,99509.91
2022-08-22T21:36:01.207Z,99503.56
2022-08-22T21:38:29.726Z,99502.31
2022-08-22T21:41:02.827Z,99503.72
2022-08-22T21:43:34.657Z,99504.69
2022-08-22T21:46:03.195Z,99503.91
2022-08-22T21:48:35.886Z,99510.19
2022-08-22T21:51:24.059Z,99512.84
2022-08-22T21:53:53.394Z,99516.47
2022-08-22T21:56:41.008Z,99514.66
2022-08-22T21:59:51.085Z,99520.63
2022-08-22T22:02:29.470Z,99510.28
2022-08-22T22:05:02.927Z,99517.16
2022-08-22T22:07:31.149Z,99521.03
2022-08-22T22:10:00.271Z,99515.19
2022-08-22T22:12:28.578Z,99517.00
2022-08-22T22:14:56.876Z,99523.47
2022-08-22T22:17:25.268Z,99527.66
2022-08-22T22:19:54.297Z,99528.72
2022-08-22T22:22:24.353Z,99529.56
2022-08-22T22:24:52.398Z,99525.13
2022-08-22T22:27:20.537Z,99520.66
2022-08-22T22:29:48.647Z,99518.72
2022-08-22T22:32:16.837Z,99516.69
2022-08-22T22:34:44.986Z,99518.91
2022-08-22T22:37:14.709Z,99518.16
2022-08-22T22:39:44.376Z,99518.41
2022-08-22T22:42:13.247Z,99523.94
2022-08-22T22:44:41.507Z,99525.84
2022-08-22T22:47:15.665Z,99530.44
2022-08-22T22:49:44.787Z,99535.97
2022-08-22T22:52:13.055Z,99534.47
2022-08-22T22:54:41.875Z,99531.81
2022-08-22T22:57:13.941Z,99537.88
2022-08-22T22:59:45.635Z,99528.22
2022-08-22T23:02:19.988Z,99528.41
2022-08-22T23:04:52.138Z,99526.84
2022-08-22T23:07:21.606Z,99531.50
2022-08-22T23:09:49.923Z,99532.13
2022-08-22T23:12:23.178Z,99532.75
2022-08-22T23:14:51.797Z,99526.59
2022-08-22T23:17:20.937Z,99530.94
2022-08-22T23:19:49.378Z,99524.88
2022-08-22T23:22:17.877Z,99522.00
2022-08-22T23:24:46.265Z,99518.06
2022-08-22T23:27:14.455Z,99534.13
2022-08-22T23:29:44.659Z,99531.25
2022-08-22T23:32:14.757Z,99537.50
2022-08-22T23:34:46.884Z,99541.78
2022-08-22T23:37:20.977Z,99532.72
2022-08-22T23:39:50.142Z,99538.88
2022-08-22T23:42:19.185Z,99539.53
2022-08-22T23:44:48.687Z,99534.31
2022-08-22T23:47:17.267Z,99529.09
2022-08-22T23:49:46.118Z,99521.03
2022-08-22T23:52:15.118Z,99528.38
2022-08-22T23:54:43.444Z,99522.53
2022-08-22T23:57:12.804Z,99526.38
2022-08-22T23:59:46.330Z,99537.22
